Time;durP1;ratioP1;P1;durP2;ratioP2;P2;SDS_P1;SDS_P2;PMS_P1;PMS_P2;Temp;Humidity;BMP_temperature;BMP_pressure;BME280_temperature;BME280_humidity;BME280_pressure;Samples;Min_cycle;Max_cycle;Signal;HPM_P1;HPM_P2
2023/12/23 00:00:02;;;;;;;4.53;1.23;;;7.80;99.90;;;;;;4976030;28;20662;-75
2023/12/23 00:03:21;;;;;;;6.20;1.37;;;7.80;99.90;;;;;;4998780;28;20181;-75
2023/12/23 00:05:48;;;;;;;7.83;1.50;;;7.70;99.90;;;;;;4975886;28;20200;-75
2023/12/23 00:08:15;;;;;;;6.87;1.43;;;7.80;99.90;;;;;;4991392;28;20227;-75
2023/12/23 00:10:43;;;;;;;3.97;1.60;;;7.70;99.90;;;;;;4975949;28;20219;-75
2023/12/23 00:13:12;;;;;;;10.80;1.30;;;7.70;99.90;;;;;;4976750;28;20197;-75
2023/12/23 00:15:39;;;;;;;6.33;1.60;;;7.70;99.90;;;;;;4992677;28;20203;-75
2023/12/23 00:18:06;;;;;;;6.47;1.50;;;7.70;99.90;;;;;;4979971;28;20212;-75
2023/12/23 00:20:34;;;;;;;4.33;1.20;;;7.70;99.90;;;;;;4979397;28;20570;-76
2023/12/23 00:23:01;;;;;;;4.73;1.50;;;7.70;99.90;;;;;;4998355;28;20193;-75
2023/12/23 00:25:29;;;;;;;2.70;1.00;;;7.80;99.90;;;;;;4978999;28;20196;-75
2023/12/23 00:27:56;;;;;;;7.27;1.37;;;7.80;99.90;;;;;;4996656;28;20224;-75
2023/12/23 00:30:25;;;;;;;5.10;1.40;;;7.80;99.90;;;;;;4979770;28;20239;-75
2023/12/23 00:32:53;;;;;;;7.10;2.27;;;7.80;99.90;;;;;;4978619;28;20208;-75
2023/12/23 00:35:21;;;;;;;5.67;1.67;;;7.80;99.90;;;;;;4996643;28;20200;-75
2023/12/23 00:37:48;;;;;;;4.70;1.10;;;7.80;99.90;;;;;;5008929;28;20217;-75
2023/12/23 00:40:17;;;;;;;4.07;1.20;;;7.80;99.90;;;;;;5011919;28;20267;-75
2023/12/23 00:42:45;;;;;;;4.90;1.10;;;7.90;99.90;;;;;;5000921;28;20209;-75
2023/12/23 00:45:12;;;;;;;4.97;0.93;;;7.90;99.90;;;;;;4996460;28;20193;-75
2023/12/23 00:47:41;;;;;;;5.97;1.43;;;7.80;99.90;;;;;;4978385;28;20236;-75
2023/12/23 00:50:10;;;;;;;8.77;2.00;;;7.90;99.90;;;;;;4996352;28;20188;-75
2023/12/23 00:52:37;;;;;;;5.60;1.67;;;7.90;99.90;;;;;;4995708;28;20219;-75
2023/12/23 00:55:04;;;;;;;5.03;1.27;;;7.90;99.90;;;;;;4979125;28;20200;-75
2023/12/23 00:57:32;;;;;;;4.37;1.20;;;7.90;99.90;;;;;;4996017;28;20227;-75
2023/12/23 00:59:59;;;;;;;8.63;1.53;;;7.90;99.90;;;;;;4978726;28;20655;-75
2023/12/23 01:02:27;;;;;;;6.90;1.50;;;7.90;99.90;;;;;;4978608;28;20211;-75
2023/12/23 01:04:55;;;;;;;8.10;1.70;;;7.80;99.90;;;;;;4978486;28;20208;-75
2023/12/23 01:07:23;;;;;;;4.17;1.07;;;7.90;99.90;;;;;;4995871;28;20686;-75
2023/12/23 01:09:50;;;;;;;5.97;1.20;;;7.90;99.90;;;;;;4977910;28;20204;-75
2023/12/23 01:12:18;;;;;;;3.73;1.20;;;7.90;99.90;;;;;;4982355;28;20212;-76
2023/12/23 01:14:46;;;;;;;3.30;0.97;;;7.90;99.90;;;;;;4998560;28;20644;-75
2023/12/23 01:17:13;;;;;;;3.47;1.00;;;7.90;99.90;;;;;;4998030;28;20689;-76
2023/12/23 01:19:40;;;;;;;7.87;1.37;;;7.90;99.90;;;;;;4983955;28;20208;-76
2023/12/23 01:22:09;;;;;;;6.77;1.60;;;7.90;99.90;;;;;;4984419;28;20196;-76
2023/12/23 01:24:36;;;;;;;4.97;1.13;;;7.90;99.90;;;;;;4990022;28;20564;-76
2023/12/23 01:27:04;;;;;;;4.13;1.47;;;7.90;99.90;;;;;;4994313;28;20240;-75
2023/12/23 01:29:31;;;;;;;9.10;1.20;;;8.00;99.90;;;;;;4994332;28;20204;-75
2023/12/23 01:31:59;;;;;;;5.50;1.40;;;7.80;99.90;;;;;;4977949;28;20212;-75
2023/12/23 01:34:27;;;;;;;4.37;1.47;;;7.80;99.90;;;;;;4978213;28;20685;-75
2023/12/23 01:36:54;;;;;;;5.03;1.60;;;7.90;99.90;;;;;;4995616;28;20197;-76
2023/12/23 01:39:23;;;;;;;5.90;1.07;;;7.90;99.90;;;;;;5001948;28;20203;-76
2023/12/23 01:41:52;;;;;;;8.47;1.43;;;7.90;99.90;;;;;;4995178;28;20188;-76
2023/12/23 01:44:19;;;;;;;4.67;2.03;;;7.90;99.90;;;;;;4977065;28;20204;-76
2023/12/23 01:46:47;;;;;;;5.23;1.43;;;8.00;99.90;;;;;;4978197;28;20281;-76
2023/12/23 01:49:15;;;;;;;3.80;1.20;;;8.00;99.90;;;;;;4978185;28;20200;-76
2023/12/23 01:51:42;;;;;;;3.50;0.90;;;7.90;99.90;;;;;;4977592;28;20606;-76
2023/12/23 01:54:09;;;;;;;3.33;1.10;;;7.90;99.90;;;;;;4994255;28;20196;-76
2023/12/23 01:56:38;;;;;;;4.03;1.20;;;7.90;99.90;;;;;;4995170;28;20192;-76
2023/12/23 01:59:05;;;;;;;3.97;1.47;;;8.00;99.90;;;;;;4977794;28;20216;-76
2023/12/23 02:01:33;;;;;;;2.50;0.90;;;8.00;99.90;;;;;;4977739;28;20199;-76
2023/12/23 02:04:01;;;;;;;4.00;1.17;;;8.00;99.90;;;;;;4977343;28;20201;-76
2023/12/23 02:06:28;;;;;;;4.50;1.20;;;7.90;99.90;;;;;;4995210;28;20650;-76
2023/12/23 02:08:56;;;;;;;4.00;1.00;;;7.90;99.90;;;;;;4995086;28;20216;-76
2023/12/23 02:11:43;;;;;;;1.83;0.70;;;8.00;99.90;;;;;;4978284;28;20227;-76
2023/12/23 02:14:19;;;;;;;3.27;0.73;;;8.00;99.90;;;;;;4977844;28;20204;-76
2023/12/23 02:16:47;;;;;;;6.00;0.90;;;8.00;99.90;;;;;;4977635;28;20195;-76
2023/12/23 02:19:15;;;;;;;4.47;1.20;;;7.90;99.90;;;;;;4977052;28;20211;-76
2023/12/23 02:21:43;;;;;;;6.80;0.97;;;7.90;99.90;;;;;;5000137;28;20200;-76
2023/12/23 02:24:11;;;;;;;5.93;1.10;;;7.90;99.90;;;;;;4976577;28;20207;-76
2023/12/23 02:26:41;;;;;;;6.33;0.93;;;7.90;99.90;;;;;;4977627;28;20208;-76
2023/12/23 02:29:09;;;;;;;4.60;1.10;;;7.90;99.90;;;;;;4976152;28;20260;-75
2023/12/23 02:31:37;;;;;;;6.87;1.50;;;7.90;99.90;;;;;;4975857;28;20212;-76
2023/12/23 02:34:05;;;;;;;5.97;1.60;;;7.90;99.90;;;;;;4994080;28;20193;-76
2023/12/23 02:36:33;;;;;;;3.80;1.40;;;7.80;99.90;;;;;;4994065;28;20191;-75
2023/12/23 02:39:01;;;;;;;8.27;1.77;;;7.80;99.90;;;;;;4984985;28;20227;-76
2023/12/23 02:41:29;;;;;;;4.87;1.03;;;7.80;99.90;;;;;;5007304;28;20200;-75
2023/12/23 02:43:56;;;;;;;5.13;1.50;;;7.70;99.90;;;;;;4976838;28;20205;-76
2023/12/23 02:46:23;;;;;;;6.77;1.97;;;7.70;99.90;;;;;;4994206;28;20200;-76
2023/12/23 02:48:51;;;;;;;7.47;1.93;;;7.70;99.90;;;;;;4997304;28;20609;-76
2023/12/23 02:51:18;;;;;;;7.37;2.30;;;7.70;99.90;;;;;;4990376;28;20543;-76
2023/12/23 02:53:45;;;;;;;9.17;3.17;;;7.70;99.90;;;;;;4984474;28;20207;-76
2023/12/23 02:56:14;;;;;;;8.30;3.00;;;7.70;99.90;;;;;;4977924;28;20192;-76
2023/12/23 02:58:41;;;;;;;4.87;2.67;;;7.70;99.90;;;;;;4976185;28;20223;-76
2023/12/23 03:01:09;;;;;;;8.17;3.20;;;7.60;99.90;;;;;;4992470;28;20208;-76
2023/12/23 03:03:37;;;;;;;8.47;3.20;;;7.60;99.90;;;;;;4975099;28;20655;-76
2023/12/23 03:06:05;;;;;;;5.73;2.90;;;7.60;99.90;;;;;;4993506;28;20704;-76
2023/12/23 03:08:32;;;;;;;9.17;3.97;;;7.60;99.90;;;;;;4976626;28;20223;-75
2023/12/23 03:10:59;;;;;;;10.90;2.80;;;7.60;99.90;;;;;;4993559;28;20200;-75
2023/12/23 03:13:28;;;;;;;9.77;3.10;;;7.60;99.90;;;;;;4980926;28;20213;-76
2023/12/23 03:15:56;;;;;;;10.00;3.13;;;7.60;99.90;;;;;;4975963;28;20200;-76
2023/12/23 03:18:23;;;;;;;7.47;3.27;;;7.50;99.90;;;;;;4993576;28;20223;-76
2023/12/23 03:20:50;;;;;;;9.10;3.20;;;7.50;99.90;;;;;;4998021;28;20214;-76
2023/12/23 03:23:18;;;;;;;10.67;3.53;;;7.50;99.90;;;;;;4976486;28;20202;-76
2023/12/23 03:25:45;;;;;;;10.00;3.33;;;7.50;99.90;;;;;;4995863;28;20613;-76
2023/12/23 03:28:12;;;;;;;8.23;3.77;;;7.50;99.90;;;;;;4976375;28;20594;-75
2023/12/23 03:30:41;;;;;;;9.70;4.90;;;7.50;99.90;;;;;;4975721;28;20193;-76
2023/12/23 03:33:08;;;;;;;6.93;3.83;;;7.60;99.90;;;;;;4988562;28;20228;-76
2023/12/23 03:35:37;;;;;;;11.87;4.67;;;7.60;99.90;;;;;;4976016;28;20206;-76
2023/12/23 03:38:04;;;;;;;8.60;4.50;;;7.50;99.90;;;;;;4976144;28;20231;-76
2023/12/23 03:40:32;;;;;;;6.20;4.70;;;7.60;99.90;;;;;;4975878;28;20200;-76
2023/12/23 03:42:59;;;;;;;11.07;5.07;;;7.60;99.90;;;;;;4993042;28;20193;-76
2023/12/23 03:45:27;;;;;;;9.20;4.13;;;7.60;99.90;;;;;;4993122;28;20206;-76
2023/12/23 03:47:55;;;;;;;11.13;4.83;;;7.60;99.90;;;;;;4975894;28;20220;-75
2023/12/23 03:50:23;;;;;;;10.73;4.90;;;7.60;99.90;;;;;;4975234;28;20219;-76
2023/12/23 03:52:50;;;;;;;7.77;4.60;;;7.70;99.90;;;;;;4997064;28;20220;-76
2023/12/23 03:55:17;;;;;;;9.67;3.70;;;7.70;99.90;;;;;;4998262;28;20562;-76
2023/12/23 03:57:45;;;;;;;5.33;3.60;;;7.70;99.90;;;;;;4975714;28;20234;-76
2023/12/23 04:00:16;;;;;;;6.40;3.93;;;7.70;99.90;;;;;;4975274;28;20199;-76
2023/12/23 04:02:43;;;;;;;7.73;4.90;;;7.80;99.90;;;;;;4992367;28;20196;-76
2023/12/23 04:05:12;;;;;;;8.70;6.23;;;7.80;99.90;;;;;;4980823;28;20207;-76
2023/12/23 04:07:40;;;;;;;12.30;6.00;;;8.00;99.90;;;;;;4975392;28;20234;-76
2023/12/23 04:10:07;;;;;;;10.00;7.27;;;8.00;99.90;;;;;;4975752;28;20214;-76
2023/12/23 04:12:35;;;;;;;11.77;6.83;;;8.20;99.90;;;;;;4989486;28;20212;-75
2023/12/23 04:15:05;;;;;;;11.73;7.43;;;8.30;99.90;;;;;;4994041;28;20204;-76
2023/12/23 04:17:32;;;;;;;13.27;8.07;;;8.40;99.90;;;;;;4977340;28;20219;-76
2023/12/23 04:20:00;;;;;;;13.63;9.57;;;8.60;99.90;;;;;;4975146;28;20207;-75
2023/12/23 04:22:28;;;;;;;11.80;8.53;;;8.60;99.90;;;;;;4964266;28;20204;-76
2023/12/23 04:24:56;;;;;;;14.87;9.07;;;8.70;99.90;;;;;;4992279;28;20199;-76
2023/12/23 04:27:23;;;;;;;14.97;9.27;;;8.80;99.90;;;;;;4975407;28;20216;-76
2023/12/23 04:29:51;;;;;;;11.47;8.40;;;8.80;99.90;;;;;;4975545;28;20215;-76
2023/12/23 04:32:19;;;;;;;12.23;7.97;;;8.90;99.90;;;;;;4975007;28;20207;-76
2023/12/23 04:34:46;;;;;;;14.30;8.50;;;8.90;99.90;;;;;;4974820;28;20207;-76
2023/12/23 04:37:14;;;;;;;9.70;6.53;;;9.00;99.90;;;;;;4975399;28;20220;-76
2023/12/23 04:39:43;;;;;;;11.63;7.00;;;9.00;99.90;;;;;;4965207;28;20189;-76
2023/12/23 04:42:11;;;;;;;10.93;7.93;;;9.10;99.90;;;;;;4990166;28;20197;-76
2023/12/23 04:44:38;;;;;;;11.40;7.87;;;9.10;99.90;;;;;;5000604;28;20689;-76
2023/12/23 04:47:06;;;;;;;9.20;7.47;;;9.10;99.90;;;;;;4966162;28;20235;-76
2023/12/23 04:49:33;;;;;;;11.73;8.83;;;9.20;99.90;;;;;;4976198;28;20207;-76
2023/12/23 04:52:01;;;;;;;12.27;9.07;;;9.20;99.90;;;;;;4981080;28;20216;-76
2023/12/23 04:54:28;;;;;;;15.43;8.53;;;9.30;99.90;;;;;;4975466;28;20204;-76
2023/12/23 04:57:15;;;;;;;13.93;9.07;;;9.20;99.90;;;;;;4978433;28;20204;-76
2023/12/23 04:59:43;;;;;;;15.37;8.60;;;9.30;99.90;;;;;;4985568;28;20211;-76
2023/12/23 05:02:11;;;;;;;13.43;7.47;;;9.30;99.90;;;;;;4987265;28;20200;-76
2023/12/23 05:04:39;;;;;;;11.47;6.87;;;9.30;99.90;;;;;;4995712;28;20284;-75
2023/12/23 05:07:07;;;;;;;14.43;7.73;;;9.30;99.90;;;;;;4994057;28;20220;-76
2023/12/23 05:09:36;;;;;;;11.93;7.73;;;9.30;99.90;;;;;;4978537;28;20203;-76
2023/12/23 05:12:04;;;;;;;13.57;7.63;;;9.40;99.90;;;;;;4992511;28;20212;-76
2023/12/23 05:14:33;;;;;;;13.67;6.17;;;9.40;99.90;;;;;;4978342;28;20678;-76
2023/12/23 05:17:01;;;;;;;10.43;7.00;;;9.40;99.90;;;;;;4967426;28;20205;-76
2023/12/23 05:19:32;;;;;;;13.37;6.30;;;9.40;99.90;;;;;;4978495;28;20207;-76
2023/12/23 05:21:59;;;;;;;11.90;6.60;;;9.30;99.90;;;;;;4978281;28;20215;-76
2023/12/23 05:28:14;;;;;;;8.47;6.50;;;9.40;99.90;;;;;;4995989;28;20211;-76
2023/12/23 05:30:43;;;;;;;12.07;6.97;;;9.40;99.90;;;;;;4978765;28;20543;-76
2023/12/23 05:33:10;;;;;;;11.37;6.40;;;9.30;99.90;;;;;;4974230;28;20213;-76
2023/12/23 05:35:38;;;;;;;13.93;7.17;;;9.30;99.90;;;;;;4995880;28;20196;-76
2023/12/23 05:38:05;;;;;;;11.67;7.43;;;9.30;99.90;;;;;;4995218;28;20208;-76
2023/12/23 05:40:32;;;;;;;13.63;6.77;;;9.30;99.90;;;;;;4994583;28;20196;-76
2023/12/23 05:43:03;;;;;;;10.73;7.00;;;9.20;99.90;;;;;;4977630;28;20564;-76
2023/12/23 05:45:30;;;;;;;11.03;6.90;;;9.30;99.90;;;;;;4978753;28;20205;-76
2023/12/23 05:47:59;;;;;;;8.77;7.03;;;9.30;99.90;;;;;;4995392;28;20215;-76
2023/12/23 05:50:26;;;;;;;10.97;6.40;;;9.30;99.90;;;;;;4977929;28;20201;-76
2023/12/23 05:52:54;;;;;;;11.10;6.47;;;9.20;99.90;;;;;;4977470;28;20204;-76
2023/12/23 05:55:21;;;;;;;9.10;6.77;;;9.20;99.90;;;;;;4977402;28;20690;-76
2023/12/23 05:57:48;;;;;;;12.70;6.53;;;9.20;99.90;;;;;;4977372;28;20220;-76
2023/12/23 06:00:19;;;;;;;8.97;6.20;;;9.20;99.90;;;;;;4974980;28;20205;-76
2023/12/23 06:02:46;;;;;;;14.53;6.80;;;9.20;99.90;;;;;;4975529;28;20181;-76
2023/12/23 06:05:15;;;;;;;13.70;6.77;;;9.20;99.90;;;;;;4974730;28;20216;-76
2023/12/23 06:07:43;;;;;;;8.97;6.03;;;9.20;99.90;;;;;;4974538;28;20208;-76
2023/12/23 06:10:10;;;;;;;8.50;5.63;;;9.30;99.90;;;;;;4977069;28;20197;-76
2023/12/23 06:12:37;;;;;;;12.10;6.13;;;9.30;99.90;;;;;;4994813;28;20689;-76
2023/12/23 06:15:52;;;;;;;9.53;5.83;;;9.30;99.90;;;;;;4995210;28;20219;-76
2023/12/23 06:18:20;;;;;;;9.43;5.83;;;9.30;99.90;;;;;;4976824;28;20224;-76
2023/12/23 06:20:50;;;;;;;11.30;5.10;;;9.30;99.90;;;;;;5011302;28;20215;-76
2023/12/23 06:23:17;;;;;;;7.27;5.17;;;9.30;99.90;;;;;;4973749;28;20201;-76
2023/12/23 06:25:44;;;;;;;11.83;5.87;;;9.30;99.90;;;;;;4958508;28;20205;-76
2023/12/23 06:28:12;;;;;;;6.87;5.00;;;9.20;99.90;;;;;;4960659;28;20231;-76
2023/12/23 06:30:39;;;;;;;9.93;6.00;;;9.20;99.90;;;;;;4976996;28;20200;-76
2023/12/23 06:33:07;;;;;;;8.23;4.57;;;9.30;99.90;;;;;;4976830;28;20282;-76
2023/12/23 06:35:35;;;;;;;11.73;5.23;;;9.20;99.90;;;;;;4978173;28;20200;-76
2023/12/23 06:38:04;;;;;;;7.90;4.50;;;9.30;99.90;;;;;;4994402;28;20239;-76
2023/12/23 06:40:31;;;;;;;9.17;5.20;;;9.20;99.90;;;;;;4977080;28;20673;-76
2023/12/23 06:42:58;;;;;;;8.70;5.40;;;9.20;99.90;;;;;;4976455;28;20200;-76
2023/12/23 06:45:26;;;;;;;7.47;5.03;;;9.20;99.90;;;;;;4981186;28;20200;-76
2023/12/23 06:47:53;;;;;;;9.37;5.03;;;9.20;99.90;;;;;;4976366;28;20584;-76
2023/12/23 06:50:20;;;;;;;8.30;4.63;;;9.20;99.90;;;;;;4976804;28;20204;-76
2023/12/23 06:52:48;;;;;;;8.53;5.67;;;9.20;99.90;;;;;;4993020;28;20204;-76
2023/12/23 06:55:16;;;;;;;8.47;4.63;;;9.20;99.90;;;;;;4988464;28;20204;-76
2023/12/23 06:57:44;;;;;;;9.03;4.80;;;9.20;99.90;;;;;;4974524;28;20213;-76
2023/12/23 07:00:13;;;;;;;9.13;5.63;;;9.20;99.90;;;;;;4973077;28;20205;-76
2023/12/23 07:02:40;;;;;;;11.53;6.20;;;9.20;99.90;;;;;;4973246;28;20208;-76
2023/12/23 07:05:08;;;;;;;7.03;5.00;;;9.30;99.90;;;;;;4984432;28;20204;-77
2023/12/23 07:07:35;;;;;;;10.93;4.77;;;9.20;99.90;;;;;;4993914;28;20216;-75
2023/12/23 07:10:03;;;;;;;11.07;5.20;;;9.30;99.90;;;;;;4976715;28;20201;-75
2023/12/23 07:12:32;;;;;;;9.13;5.40;;;9.60;99.90;;;;;;4975792;28;20200;-75
2023/12/23 07:14:59;;;;;;;7.33;4.20;;;9.60;99.90;;;;;;4979414;28;20706;-75
2023/12/23 07:17:26;;;;;;;13.07;5.60;;;9.70;99.90;;;;;;4976852;28;20216;-75
2023/12/23 07:19:53;;;;;;;12.63;6.13;;;9.50;99.90;;;;;;4974394;28;20201;-77
2023/12/23 07:22:23;;;;;;;13.20;5.40;;;9.40;99.90;;;;;;4995173;28;20200;-76
2023/12/23 07:24:56;;;;;;;7.60;4.80;;;9.30;99.90;;;;;;4975500;28;20196;-77
2023/12/23 07:27:24;;;;;;;12.50;5.07;;;9.30;99.90;;;;;;4991649;28;20224;-76
2023/12/23 07:29:52;;;;;;;9.73;4.77;;;9.20;99.90;;;;;;4983618;28;20212;-76
2023/12/23 07:32:20;;;;;;;11.30;4.73;;;9.20;99.90;;;;;;4994986;28;20192;-76
2023/12/23 07:34:47;;;;;;;8.93;4.40;;;9.20;99.90;;;;;;4978752;28;20212;-76
2023/12/23 07:37:15;;;;;;;9.87;5.10;;;9.20;99.90;;;;;;4975666;28;20224;-76
2023/12/23 07:39:42;;;;;;;7.40;4.70;;;9.30;99.90;;;;;;4975693;28;20197;-76
2023/12/23 07:42:10;;;;;;;10.77;4.63;;;9.30;99.90;;;;;;4983005;28;20207;-76
2023/12/23 07:44:37;;;;;;;4.40;3.27;;;9.40;99.90;;;;;;4977660;28;20197;-77
2023/12/23 07:47:09;;;;;;;6.57;4.30;;;9.30;99.90;;;;;;5001143;28;20192;-76
2023/12/23 07:49:36;;;;;;;7.13;4.07;;;9.40;99.90;;;;;;4994408;28;20184;-76
2023/12/23 07:52:04;;;;;;;7.90;4.43;;;9.40;99.90;;;;;;4980319;28;20215;-76
2023/12/23 07:54:32;;;;;;;7.37;3.97;;;9.40;99.90;;;;;;4992739;28;20212;-76
2023/12/23 07:56:59;;;;;;;10.50;4.00;;;9.40;99.90;;;;;;4980789;28;20214;-76
2023/12/23 07:59:26;;;;;;;6.80;4.23;;;9.30;99.90;;;;;;4981885;28;20685;-76
2023/12/23 08:01:54;;;;;;;6.00;4.93;;;9.30;99.90;;;;;;4976538;28;20215;-76
2023/12/23 08:04:23;;;;;;;13.03;4.90;;;9.40;99.90;;;;;;4975166;28;20207;-76
2023/12/23 08:06:50;;;;;;;8.23;4.53;;;9.40;99.90;;;;;;4978353;28;20207;-76
2023/12/23 08:09:18;;;;;;;12.50;5.23;;;9.40;99.90;;;;;;4984931;28;20196;-76
2023/12/23 08:11:45;;;;;;;11.40;5.80;;;9.40;99.90;;;;;;4998768;28;20196;-75
2023/12/23 08:14:12;;;;;;;10.27;5.23;;;9.40;99.90;;;;;;4993354;28;20216;-77
2023/12/23 08:16:40;;;;;;;12.03;4.90;;;9.50;99.90;;;;;;4983106;28;20200;-77
2023/12/23 08:19:07;;;;;;;9.13;5.10;;;9.40;99.90;;;;;;4983145;28;20216;-76
2023/12/23 08:21:36;;;;;;;10.50;5.20;;;9.50;99.90;;;;;;4999883;28;20203;-76
2023/12/23 08:24:04;;;;;;;11.73;5.43;;;9.50;99.90;;;;;;4974988;28;20204;-77
2023/12/23 08:26:31;;;;;;;14.37;5.37;;;9.50;99.90;;;;;;4981362;28;20655;-76
2023/12/23 08:28:59;;;;;;;10.53;5.83;;;9.50;99.90;;;;;;5007702;28;20223;-75
2023/12/23 08:31:29;;;;;;;11.63;5.20;;;9.50;99.90;;;;;;4997462;28;20196;-75
2023/12/23 08:33:56;;;;;;;9.70;6.10;;;9.50;99.90;;;;;;4977400;28;20216;-75
2023/12/23 08:36:31;;;;;;;11.33;6.73;;;9.50;99.90;;;;;;5004742;28;20216;-75
2023/12/23 08:39:00;;;;;;;9.23;5.77;;;9.50;99.90;;;;;;4985081;28;20246;-75
2023/12/23 08:41:27;;;;;;;9.50;5.67;;;9.50;99.90;;;;;;5005216;28;20192;-75
2023/12/23 08:43:54;;;;;;;11.40;6.07;;;9.50;99.90;;;;;;4977040;28;20193;-75
2023/12/23 08:46:22;;;;;;;15.50;5.47;;;9.50;99.90;;;;;;4987229;28;20195;-75
2023/12/23 08:48:49;;;;;;;8.87;5.43;;;9.50;99.90;;;;;;5005075;28;20299;-76
2023/12/23 08:51:16;;;;;;;9.50;5.53;;;9.50;99.90;;;;;;5004673;28;20192;-76
2023/12/23 08:53:44;;;;;;;15.43;5.40;;;9.50;99.90;;;;;;4994204;28;20551;-76
2023/12/23 08:56:16;;;;;;;12.67;4.47;;;9.60;99.90;;;;;;4998807;28;20712;-76
2023/12/23 08:59:08;;;;;;;10.37;4.67;;;9.60;99.90;;;;;;4977667;28;20219;-76
2023/12/23 09:01:35;;;;;;;10.10;4.43;;;9.60;99.90;;;;;;4999971;28;20192;-75
2023/12/23 09:04:03;;;;;;;13.73;4.90;;;9.60;99.90;;;;;;4974616;28;20200;-75
2023/12/23 09:06:30;;;;;;;6.93;3.27;;;9.60;99.90;;;;;;5003903;28;20199;-76
2023/12/23 09:08:58;;;;;;;13.00;4.20;;;9.60;99.90;;;;;;4999864;28;20220;-75
2023/12/23 09:11:43;;;;;;;8.77;3.73;;;9.60;99.90;;;;;;4986896;28;20216;-77
2023/12/23 09:14:12;;;;;;;10.47;4.23;;;9.60;99.90;;;;;;4994516;28;20204;-75
2023/12/23 09:16:39;;;;;;;10.03;3.73;;;9.70;99.90;;;;;;5009919;28;20200;-76
2023/12/23 09:19:07;;;;;;;9.17;4.23;;;9.70;99.90;;;;;;4996314;28;20217;-75
2023/12/23 09:21:34;;;;;;;7.57;3.43;;;9.70;99.90;;;;;;4977270;28;20208;-75
2023/12/23 09:24:02;;;;;;;7.63;3.33;;;9.70;99.90;;;;;;4976578;28;20228;-76
2023/12/23 09:26:30;;;;;;;8.70;3.27;;;9.70;99.90;;;;;;4983193;28;20207;-75
2023/12/23 09:28:58;;;;;;;11.37;3.30;;;9.70;99.90;;;;;;4944737;28;1073365;-77
2023/12/23 09:31:26;;;;;;;8.43;3.20;;;9.70;99.90;;;;;;4978365;28;20211;-76
2023/12/23 09:33:57;;;;;;;8.23;4.23;;;9.70;99.90;;;;;;5002386;28;20207;-76
2023/12/23 09:36:25;;;;;;;8.53;3.23;;;9.70;99.90;;;;;;4994791;28;20651;-76
2023/12/23 09:38:52;;;;;;;9.67;3.30;;;9.70;99.90;;;;;;5001232;28;20232;-76
2023/12/23 09:41:20;;;;;;;7.73;2.77;;;9.70;99.90;;;;;;4994891;28;20188;-76
2023/12/23 09:43:49;;;;;;;7.97;3.53;;;9.80;99.90;;;;;;5003816;28;20206;-76
2023/12/23 09:46:19;;;;;;;9.73;3.37;;;9.70;99.90;;;;;;4988195;28;20203;-76
2023/12/23 09:48:47;;;;;;;8.67;3.17;;;9.70;99.90;;;;;;5003680;28;20221;-76
2023/12/23 09:51:16;;;;;;;8.33;2.97;;;9.70;99.90;;;;;;5003596;28;20552;-76
2023/12/23 09:54:05;;;;;;;7.93;2.93;;;9.70;99.90;;;;;;4988660;28;20238;-76
2023/12/23 09:56:34;;;;;;;9.63;2.83;;;9.70;99.90;;;;;;4993722;28;20219;-76
2023/12/23 09:59:04;;;;;;;6.30;3.20;;;9.80;99.90;;;;;;4976233;28;20224;-76
2023/12/23 10:01:54;;;;;;;8.07;2.80;;;9.70;99.90;;;;;;4976866;28;20696;-75
2023/12/23 10:05:08;;;;;;;6.90;2.43;;;9.80;99.90;;;;;;4994079;28;20203;-75
2023/12/23 10:07:36;;;;;;;8.03;3.00;;;9.80;99.90;;;;;;4993939;28;20212;-76
2023/12/23 10:10:31;;;;;;;10.67;3.43;;;9.80;99.90;;;;;;4977664;28;20208;-76
2023/12/23 10:12:59;;;;;;;6.80;2.53;;;9.80;99.90;;;;;;4976901;28;20215;-76
2023/12/23 10:15:26;;;;;;;10.37;3.37;;;9.80;99.90;;;;;;4993697;28;20212;-76
2023/12/23 10:17:55;;;;;;;8.10;2.53;;;9.80;99.90;;;;;;4995877;28;20235;-76
2023/12/23 10:20:24;;;;;;;8.13;2.93;;;9.80;99.90;;;;;;4986273;28;20238;-75
2023/12/23 10:22:51;;;;;;;6.93;3.00;;;9.90;99.90;;;;;;4980501;28;20230;-75
2023/12/23 10:25:28;;;;;;;8.63;3.10;;;9.90;99.90;;;;;;4996174;28;20201;-76
2023/12/23 10:28:24;;;;;;;7.03;3.43;;;9.90;99.90;;;;;;4987495;28;20219;-75
2023/12/23 10:31:06;;;;;;;7.73;3.40;;;9.80;99.90;;;;;;4993865;28;20207;-75
2023/12/23 10:34:00;;;;;;;8.33;3.33;;;9.90;99.90;;;;;;4993964;28;20196;-75
2023/12/23 10:36:27;;;;;;;6.83;3.10;;;9.90;99.90;;;;;;4984095;28;20226;-75
2023/12/23 10:39:47;;;;;;;7.27;3.10;;;9.80;99.90;;;;;;4996697;28;20225;-75
2023/12/23 10:46:17;;;;;;;6.57;3.03;;;9.90;99.90;;;;;;5002058;28;20172;-76
2023/12/23 10:48:45;;;;;;;7.17;2.83;;;9.80;99.90;;;;;;4983658;28;20232;-76
2023/12/23 10:51:14;;;;;;;8.67;2.80;;;9.80;99.90;;;;;;4975859;28;20200;-76
2023/12/23 10:53:42;;;;;;;3.43;2.50;;;9.80;99.90;;;;;;4992643;28;20200;-76
2023/12/23 10:56:10;;;;;;;6.10;2.70;;;9.80;99.90;;;;;;4976288;28;20216;-76
2023/12/23 10:58:40;;;;;;;7.53;2.97;;;9.80;99.90;;;;;;5000468;28;20713;-76
2023/12/23 11:01:10;;;;;;;6.07;2.40;;;9.70;99.90;;;;;;4997080;28;20200;-76
2023/12/23 11:03:38;;;;;;;5.30;2.90;;;9.70;99.90;;;;;;4993141;28;20208;-77
2023/12/23 11:06:08;;;;;;;8.43;2.97;;;9.70;99.90;;;;;;4970285;28;20200;-77
2023/12/23 11:08:38;;;;;;;7.93;2.80;;;9.70;99.90;;;;;;4992704;28;20231;-77
2023/12/23 11:11:05;;;;;;;4.67;2.27;;;9.70;99.90;;;;;;4976418;28;20200;-77
2023/12/23 11:13:33;;;;;;;6.70;2.93;;;9.60;99.90;;;;;;4975466;28;20212;-77
2023/12/23 11:16:01;;;;;;;6.80;2.90;;;9.70;99.90;;;;;;4979569;28;20266;-78
2023/12/23 11:18:28;;;;;;;8.20;3.73;;;9.70;99.90;;;;;;4993654;28;20576;-77
2023/12/23 11:20:57;;;;;;;7.80;4.27;;;9.60;99.90;;;;;;4980217;28;20573;-78
2023/12/23 11:24:07;;;;;;;6.33;3.93;;;9.60;99.90;;;;;;4991919;28;20218;-77
2023/12/23 11:26:42;;;;;;;9.33;4.83;;;9.60;99.90;;;;;;4976065;28;20197;-77
2023/12/23 11:29:13;;;;;;;10.17;5.00;;;9.60;99.90;;;;;;4975691;28;20713;-77
2023/12/23 11:31:40;;;;;;;9.23;5.10;;;9.60;99.90;;;;;;4992697;28;20200;-77
2023/12/23 11:34:15;;;;;;;8.43;5.40;;;9.60;99.90;;;;;;4998749;28;20204;-77
2023/12/23 11:36:44;;;;;;;12.50;6.67;;;9.60;99.90;;;;;;4983412;28;20228;-77
2023/12/23 11:42:40;;;;;;;11.17;5.57;;;9.70;99.90;;;;;;4999481;28;20203;-76
2023/12/23 11:45:09;;;;;;;10.73;5.67;;;9.70;99.90;;;;;;4980892;28;20200;-76
2023/12/23 11:47:37;;;;;;;11.63;5.83;;;9.70;99.90;;;;;;4972588;28;20216;-76
2023/12/23 11:50:05;;;;;;;10.20;4.80;;;9.70;99.90;;;;;;4975767;28;20208;-76
2023/12/23 11:52:33;;;;;;;10.30;4.90;;;9.70;99.90;;;;;;4991869;28;20203;-76
2023/12/23 11:55:00;;;;;;;12.23;5.43;;;9.70;99.90;;;;;;4993425;28;20192;-76
2023/12/23 11:57:28;;;;;;;9.07;4.20;;;9.70;99.90;;;;;;4998979;28;20720;-76
2023/12/23 11:59:57;;;;;;;8.57;3.77;;;9.70;99.90;;;;;;4986131;28;20208;-76
2023/12/23 12:02:43;;;;;;;7.03;3.87;;;9.70;99.90;;;;;;4975956;28;20204;-76
2023/12/23 12:05:10;;;;;;;8.37;3.70;;;9.60;99.90;;;;;;4989340;28;20704;-76
2023/12/23 12:07:38;;;;;;;6.90;3.80;;;9.60;99.90;;;;;;4995634;28;20223;-77
2023/12/23 12:10:06;;;;;;;7.80;3.97;;;9.70;99.90;;;;;;4977163;28;20200;-76
2023/12/23 12:12:33;;;;;;;8.63;3.77;;;9.70;99.90;;;;;;4975294;28;20208;-76
2023/12/23 12:15:02;;;;;;;11.93;3.67;;;9.60;99.90;;;;;;4975495;28;20705;-76
2023/12/23 12:17:30;;;;;;;8.63;3.77;;;9.70;99.90;;;;;;4999996;28;20227;-76
2023/12/23 12:19:57;;;;;;;7.57;4.00;;;9.70;99.90;;;;;;4975139;28;20219;-76
2023/12/23 12:22:25;;;;;;;8.10;3.13;;;9.70;99.90;;;;;;4982695;28;20192;-77
2023/12/23 12:24:53;;;;;;;9.77;3.77;;;9.70;99.90;;;;;;4974654;28;20653;-76
2023/12/23 12:27:22;;;;;;;7.20;3.40;;;9.70;99.90;;;;;;4974738;28;20216;-76
2023/12/23 12:29:50;;;;;;;10.43;3.57;;;9.70;99.90;;;;;;4974942;28;20223;-76
2023/12/23 12:32:18;;;;;;;5.03;3.40;;;9.80;99.90;;;;;;4975125;28;20320;-76
2023/12/23 12:38:52;;;;;;;8.73;3.17;;;9.80;99.90;;;;;;4988330;28;20231;-75
2023/12/23 12:41:19;;;;;;;5.60;2.93;;;10.70;99.90;;;;;;4993680;28;20211;-76
2023/12/23 12:43:47;;;;;;;5.43;1.97;;;10.30;99.90;;;;;;4967870;28;20201;-76
2023/12/23 12:46:15;;;;;;;7.77;2.53;;;10.00;99.90;;;;;;4992542;28;20204;-76
2023/12/23 12:48:49;;;;;;;6.40;2.90;;;9.90;99.90;;;;;;4993950;28;20219;-76
2023/12/23 12:51:26;;;;;;;6.50;3.00;;;9.90;99.90;;;;;;4999701;28;20654;-77
2023/12/23 12:57:24;;;;;;;6.80;2.60;;;9.90;99.90;;;;;;4998700;28;20243;-77
2023/12/23 12:59:51;;;;;;;6.10;2.20;;;9.90;99.90;;;;;;4975278;28;20288;-76
2023/12/23 13:02:19;;;;;;;6.47;2.60;;;9.90;99.90;;;;;;4975447;28;20208;-76
2023/12/23 13:05:17;;;;;;;6.70;2.37;;;9.90;99.90;;;;;;4975439;28;20208;-76
2023/12/23 13:07:46;;;;;;;6.43;2.20;;;9.90;99.90;;;;;;4994647;28;20227;-75
2023/12/23 13:10:14;;;;;;;3.30;2.40;;;9.90;99.90;;;;;;4976336;28;20227;-76
2023/12/23 13:12:42;;;;;;;5.77;2.37;;;9.80;99.90;;;;;;4990491;28;20251;-76
2023/12/23 13:15:10;;;;;;;8.23;3.17;;;9.90;99.90;;;;;;4979147;28;20203;-76
2023/12/23 13:21:26;;;;;;;4.67;1.80;;;10.00;99.90;;;;;;5007696;28;20182;-76
2023/12/23 13:23:53;;;;;;;5.97;2.30;;;10.10;99.90;;;;;;5004036;28;20195;-76
2023/12/23 13:26:20;;;;;;;5.57;2.03;;;10.10;99.90;;;;;;4997827;28;20223;-76